TimeCST,TemperatureF,Dew PointF,Humidity,Sea Level PressureIn,VisibilityMPH,Wind Direction,Wind SpeedMPH,Gust SpeedMPH,PrecipitationIn,Events,Conditions,WindDirDegrees,DateUTC
12:56 AM,31.1,27.1,85,30.15,-9999.0,South,8.1,-,N/A,,Clear,170,2012-11-25 06:56:00
1:56 AM,30.0,27.1,89,30.13,-9999.0,South,8.1,-,N/A,,Clear,190,2012-11-25 07:56:00
2:56 AM,30.0,27.1,89,30.12,-9999.0,South,6.9,-,N/A,,Clear,190,2012-11-25 08:56:00
3:56 AM,30.0,27.1,89,30.12,-9999.0,South,6.9,-,N/A,,Clear,180,2012-11-25 09:56:00
4:56 AM,31.1,27.1,85,30.10,-9999.0,SSE,9.2,-,N/A,,Clear,160,2012-11-25 10:56:00
5:56 AM,31.1,27.1,85,30.10,-9999.0,South,9.2,-,N/A,,Clear,180,2012-11-25 11:56:00
6:56 AM,31.1,28.0,88,30.10,-9999.0,South,10.4,-,N/A,,Clear,190,2012-11-25 12:56:00
7:56 AM,34.9,29.1,79,30.11,-9999.0,SSW,10.4,-,N/A,,Clear,200,2012-11-25 13:56:00
8:56 AM,38.8,31.1,74,30.11,-9999.0,South,12.7,-,N/A,,Clear,190,2012-11-25 14:56:00
9:56 AM,45.9,32.0,58,30.10,-9999.0,North,-9999.0,-,N/A,,Clear,0,2012-11-25 15:56:00
10:56 AM,50.9,32.9,50,30.08,-9999.0,SSW,20.7,-,N/A,,Clear,200,2012-11-25 16:56:00
11:56 AM,54.9,34.0,45,30.04,-9999.0,WSW,16.1,26.5,N/A,,Clear,240,2012-11-25 17:56:00
12:56 PM,56.8,34.0,42,30.01,-9999.0,SSW,18.4,-,N/A,,Clear,200,2012-11-25 18:56:00
1:56 PM,57.9,32.9,39,29.99,-9999.0,South,15.0,-,N/A,,Clear,190,2012-11-25 19:56:00
2:56 PM,57.9,34.9,42,29.98,-9999.0,South,15.0,-,N/A,,Clear,190,2012-11-25 20:56:00
3:56 PM,55.9,34.9,45,29.97,-9999.0,South,15.0,-,N/A,,Clear,190,2012-11-25 21:56:00
4:56 PM,50.9,36.9,59,29.97,-9999.0,South,8.1,-,N/A,,Clear,170,2012-11-25 22:56:00
5:56 PM,47.8,36.9,66,29.98,-9999.0,SSE,3.5,-,N/A,,Clear,150,2012-11-25 23:56:00
6:56 PM,45.0,36.9,73,29.99,-9999.0,South,6.9,-,N/A,,Clear,190,2012-11-26 00:56:00
7:56 PM,43.9,36.0,74,30.00,-9999.0,South,8.1,-,N/A,,Clear,180,2012-11-26 01:56:00
8:56 PM,43.0,34.9,73,30.01,-9999.0,SSE,6.9,-,N/A,,Clear,150,2012-11-26 02:56:00
9:56 PM,41.0,34.9,79,30.02,-9999.0,SSE,3.5,-,N/A,,Clear,160,2012-11-26 03:56:00
10:56 PM,41.9,34.9,76,30.03,-9999.0,SSE,5.8,-,N/A,,Clear,150,2012-11-26 04:56:00
11:56 PM,39.9,34.9,82,30.04,-9999.0,Calm,Calm,-,N/A,,Clear,0,2012-11-26 05:56:00